createdAt,value
2023-01-19T00:00:43.921Z,99902.22
2023-01-19T00:03:10.282Z,99897.56
2023-01-19T00:05:36.645Z,99910.66
2023-01-19T00:08:03.385Z,99910.66
2023-01-19T00:10:29.851Z,99914.91
2023-01-19T00:12:56.316Z,99921.66
2023-01-19T00:15:22.675Z,99927.84
2023-01-19T00:17:49.039Z,99923.94
2023-01-19T00:20:15.429Z,99917.75
2023-01-19T00:22:41.792Z,99921.66
2023-01-19T00:25:08.141Z,99923.19
2023-01-19T00:27:34.526Z,99925.78
2023-01-19T00:30:00.895Z,99922.75
2023-01-19T00:32:27.253Z,99926.19
2023-01-19T00:34:53.606Z,99925.78
2023-01-19T00:37:19.980Z,99917.63
2023-01-19T00:39:46.343Z,99922.91
2023-01-19T00:42:12.696Z,99920.03
2023-01-19T00:44:39.098Z,99931.81
2023-01-19T00:47:05.491Z,99928.66
2023-01-19T00:49:31.842Z,99933.47
2023-01-19T00:51:58.217Z,99935.75
2023-01-19T00:54:26.321Z,99932.41
2023-01-19T00:56:53.242Z,99935.44
2023-01-19T00:59:19.580Z,99935.44
2023-01-19T01:01:46.659Z,99942.06
2023-01-19T01:04:13.149Z,99947.34
2023-01-19T01:06:39.513Z,99953.97
2023-01-19T01:09:05.903Z,99955.78
2023-01-19T01:11:32.279Z,99954.75
2023-01-19T01:13:58.655Z,99958.22
2023-01-19T01:16:25.415Z,99965.59
2023-01-19T01:18:51.776Z,99976.59
2023-01-19T01:21:18.240Z,99974.03
2023-01-19T01:23:44.621Z,99974.66
2023-01-19T01:26:10.992Z,99969.22
2023-01-19T01:28:37.382Z,99970.41
2023-01-19T01:31:03.749Z,99971.63
2023-01-19T01:33:41.011Z,99973.88
2023-01-19T01:36:08.217Z,99970.41
2023-01-19T01:38:34.627Z,99979.31
2023-01-19T01:41:01.026Z,99988.97
2023-01-19T01:43:27.406Z,99992.25
2023-01-19T01:45:53.826Z,99999.97
2023-01-19T01:48:20.209Z,100001.50
2023-01-19T01:50:46.680Z,100005.84
2023-01-19T01:53:13.026Z,100005.41
2023-01-19T01:55:39.387Z,99999.97
2023-01-19T01:58:05.758Z,100005.72
2023-01-19T02:00:32.141Z,100005.72
2023-01-19T02:02:58.941Z,100009.66
2023-01-19T02:05:25.533Z,100010.38
2023-01-19T02:07:51.908Z,100013.09
2023-01-19T02:10:18.261Z,100007.09
2023-01-19T02:12:44.652Z,100003.19
2023-01-19T02:15:11.028Z,100005.72
2023-01-19T02:17:37.390Z,100015.38
2023-01-19T02:20:03.793Z,100010.56
2023-01-19T02:22:30.181Z,100016.13
2023-01-19T02:24:56.558Z,100022.34
2023-01-19T02:27:22.928Z,100021.69
2023-01-19T02:29:49.295Z,100019.00
2023-01-19T02:32:15.680Z,100020.19
2023-01-19T02:34:42.159Z,100014.31
2023-01-19T02:37:08.524Z,100020.19
2023-01-19T02:39:34.960Z,100013.22
2023-01-19T02:42:01.530Z,100009.94
2023-01-19T02:44:27.889Z,100010.25
2023-01-19T02:46:54.290Z,100011.59
2023-01-19T02:49:20.669Z,100014.00
2023-01-19T02:51:47.075Z,100003.88
2023-01-19T02:54:13.436Z,99999.22
2023-01-19T02:56:39.803Z,100003.88
2023-01-19T02:59:06.284Z,100001.03
2023-01-19T03:01:32.790Z,100006.16
2023-01-19T03:03:59.249Z,99999.97
2023-01-19T03:06:25.610Z,99999.97
2023-01-19T03:08:51.973Z,100004.34
2023-01-19T03:11:18.383Z,100003.88
2023-01-19T03:13:44.797Z,100006.31
2023-01-19T03:16:11.280Z,100005.84
2023-01-19T03:18:37.687Z,100005.66
2023-01-19T03:21:04.050Z,100006.44
2023-01-19T03:23:30.401Z,100008.56
2023-01-19T03:25:56.754Z,100007.06
2023-01-19T03:28:23.147Z,100006.31
2023-01-19T03:30:49.535Z,100006.16
2023-01-19T03:33:15.902Z,100005.84
2023-01-19T03:35:42.310Z,100007.38
2023-01-19T03:38:08.691Z,100007.50
2023-01-19T03:40:35.063Z,100009.78
2023-01-19T03:43:01.774Z,100010.84
2023-01-19T03:45:28.441Z,100014.63
2023-01-19T03:47:54.779Z,100018.66
2023-01-19T03:50:21.168Z,100014.75
2023-01-19T03:52:47.516Z,100018.53
2023-01-19T03:55:13.872Z,100008.88
2023-01-19T03:57:40.234Z,100017.34
2023-01-19T04:00:06.623Z,100022.91
2023-01-19T04:02:33.009Z,100022.47
2023-01-19T04:04:59.374Z,100019.00
2023-01-19T04:07:25.744Z,100026.66
2023-01-19T04:09:52.128Z,100016.84
2023-01-19T04:12:18.490Z,100013.69
2023-01-19T04:14:44.875Z,100011.28
2023-01-19T04:17:11.251Z,100015.94
2023-01-19T04:19:37.610Z,100021.84
2023-01-19T04:22:03.996Z,100024.41
2023-01-19T04:24:30.353Z,100012.78
2023-01-19T04:26:56.719Z,100011.41
2023-01-19T04:29:23.094Z,100012.03
2023-01-19T04:31:49.470Z,100014.13
2023-01-19T04:34:15.931Z,100007.19
2023-01-19T04:36:42.353Z,100008.69
2023-01-19T04:39:08.731Z,100009.44
2023-01-19T04:41:35.114Z,100011.72
2023-01-19T04:44:01.487Z,100011.88
2023-01-19T04:46:27.915Z,100016.06
2023-01-19T04:48:54.305Z,100016.97
2023-01-19T04:51:20.673Z,100014.72
2023-01-19T04:53:47.149Z,100018.06
2023-01-19T04:56:13.519Z,100012.28
2023-01-19T04:58:40.091Z,100015.78
2023-01-19T05:01:06.491Z,100012.28
2023-01-19T05:03:32.981Z,100017.28
2023-01-19T05:05:59.365Z,100018.91
2023-01-19T05:08:25.733Z,100016.19
2023-01-19T05:10:52.098Z,100017.41
2023-01-19T05:13:18.482Z,100017.28
2023-01-19T05:15:44.893Z,100019.69
2023-01-19T05:18:11.294Z,100018.06
2023-01-19T05:20:37.652Z,100012.75
2023-01-19T05:23:04.262Z,100015.91
2023-01-19T05:25:30.683Z,100020.44
2023-01-19T05:27:57.059Z,100012.00
2023-01-19T05:30:23.428Z,100022.09
2023-01-19T05:32:49.812Z,100025.09
2023-01-19T05:35:16.646Z,100021.97
2023-01-19T05:37:44.637Z,100023.16
2023-01-19T05:40:11.160Z,100021.63
2023-01-19T05:42:37.610Z,100019.25
2023-01-19T05:45:03.999Z,100014.25
2023-01-19T05:47:30.363Z,100028.72
2023-01-19T05:49:56.715Z,100028.28
2023-01-19T05:52:23.088Z,100024.47
2023-01-19T05:54:49.468Z,100029.59
2023-01-19T05:57:15.836Z,100023.28
2023-01-19T05:59:42.210Z,100024.03
2023-01-19T06:02:08.621Z,100023.16
2023-01-19T06:04:35.026Z,100027.94
2023-01-19T06:07:01.390Z,100023.75
2023-01-19T06:09:27.828Z,100022.53
2023-01-19T06:11:54.222Z,100031.88
2023-01-19T06:14:20.586Z,100031.44
2023-01-19T06:16:47.056Z,100031.56
2023-01-19T06:19:13.601Z,100025.22
2023-01-19T06:21:39.966Z,100037.75
2023-01-19T06:24:06.329Z,100032.19
2023-01-19T06:26:32.683Z,100034.91
2023-01-19T06:28:59.019Z,100040.75
2023-01-19T06:31:25.436Z,100029.28
2023-01-19T06:33:51.831Z,100041.22
2023-01-19T06:36:18.189Z,100047.41
2023-01-19T06:38:44.558Z,100043.16
2023-01-19T06:41:10.931Z,100047.53
2023-01-19T06:43:37.308Z,100046.31
2023-01-19T06:46:03.729Z,100051.75
2023-01-19T06:48:30.121Z,100058.41
2023-01-19T06:50:58.607Z,100051.00
2023-01-19T06:53:25.976Z,100050.81
2023-01-19T06:55:52.345Z,100054.91
2023-01-19T06:58:19.115Z,100053.53
2023-01-19T07:00:45.498Z,100053.41
2023-01-19T07:03:11.886Z,100055.81
2023-01-19T07:05:38.251Z,100055.34
2023-01-19T07:08:04.823Z,100059.88
2023-01-19T07:11:27.172Z,100051.13
2023-01-19T07:13:17.636Z,100047.19
2023-01-19T07:15:44.138Z,100053.28
2023-01-19T07:18:10.530Z,100050.25
2023-01-19T07:20:36.950Z,100052.63
2023-01-19T07:23:03.678Z,100046.44
2023-01-19T07:25:30.110Z,100041.78
2023-01-19T07:27:56.492Z,100047.19
2023-01-19T07:30:22.883Z,100049.03
2023-01-19T07:32:49.242Z,100047.66
2023-01-19T07:35:15.646Z,100051.44
2023-01-19T07:37:42.020Z,100054.16
2023-01-19T07:40:08.384Z,100057.94
2023-01-19T07:42:34.749Z,100054.91
2023-01-19T07:45:01.110Z,100060.66
2023-01-19T07:47:27.463Z,100056.44
2023-01-19T07:49:53.877Z,100060.97
2023-01-19T07:52:20.253Z,100068.78
2023-01-19T07:54:46.628Z,100068.03
2023-01-19T07:57:13.000Z,100067.91
2023-01-19T07:59:39.362Z,100065.97
2023-01-19T08:02:05.871Z,100068.03
2023-01-19T08:04:32.406Z,100075.00
2023-01-19T08:06:58.811Z,100071.50
2023-01-19T08:09:25.188Z,100074.22
2023-01-19T08:11:51.587Z,100077.66
2023-01-19T08:14:18.075Z,100078.59
2023-01-19T08:16:44.433Z,100073.03
2023-01-19T08:19:10.790Z,100075.81
2023-01-19T08:21:37.187Z,100084.28
2023-01-19T08:24:03.593Z,100081.88
2023-01-19T08:26:30.010Z,100089.97
2023-01-19T08:28:56.404Z,100090.53
2023-01-19T08:31:24.838Z,100091.22
2023-01-19T08:33:51.422Z,100079.78
2023-01-19T08:36:17.813Z,100086.09
2023-01-19T08:38:44.201Z,100082.16
2023-01-19T08:41:10.571Z,100079.72
2023-01-19T08:43:36.920Z,100085.13
2023-01-19T08:46:03.801Z,100083.19
2023-01-19T08:48:30.323Z,100092.22
2023-01-19T08:50:56.713Z,100097.16
2023-01-19T08:53:23.119Z,100087.38
2023-01-19T08:55:49.490Z,100094.44
2023-01-19T08:58:15.854Z,100097.16
2023-01-19T09:00:42.219Z,100093.38
2023-01-19T09:03:08.726Z,100098.38
2023-01-19T09:05:35.135Z,100098.50
2023-01-19T09:08:01.784Z,100106.31
2023-01-19T09:10:28.404Z,100105.88
2023-01-19T09:12:54.753Z,100104.94
2023-01-19T09:15:21.108Z,100104.19
2023-01-19T09:17:47.478Z,100104.81
2023-01-19T09:20:13.853Z,100102.53
2023-01-19T09:22:40.236Z,100099.16
2023-01-19T09:25:06.648Z,100102.22
2023-01-19T09:27:33.001Z,100102.09
2023-01-19T09:29:59.384Z,100095.44
2023-01-19T09:32:25.769Z,100103.28
2023-01-19T09:34:52.182Z,100097.84
2023-01-19T09:37:18.542Z,100093.94
2023-01-19T09:39:44.921Z,100096.97
2023-01-19T09:42:11.288Z,100092.44
2023-01-19T09:44:37.660Z,100098.16
2023-01-19T09:47:04.032Z,100096.22
2023-01-19T09:49:30.376Z,100104.81
2023-01-19T09:51:56.714Z,100102.84
2023-01-19T09:54:23.102Z,100107.66
2023-01-19T09:56:52.360Z,100112.31
2023-01-19T09:59:19.270Z,100111.75
2023-01-19T10:01:45.747Z,100110.53
2023-01-19T10:04:12.203Z,100110.50
2023-01-19T10:06:38.571Z,100111.69
2023-01-19T10:09:04.939Z,100110.03
2023-01-19T10:11:41.857Z,100115.91
2023-01-19T10:14:13.031Z,100107.19
2023-01-19T10:16:39.433Z,100121.34
2023-01-19T10:19:06.181Z,100119.69
2023-01-19T10:21:32.543Z,100118.19
2023-01-19T10:23:59.103Z,100117.53
2023-01-19T10:26:25.481Z,100116.34
2023-01-19T10:28:51.864Z,100115.16
2023-01-19T10:31:18.379Z,100112.44
2023-01-19T10:33:44.789Z,100102.94
2023-01-19T10:36:11.169Z,100103.28
2023-01-19T10:38:37.532Z,100098.88
2023-01-19T10:41:03.886Z,100099.16
2023-01-19T10:43:30.590Z,100091.38
2023-01-19T10:45:57.055Z,100087.00
2023-01-19T10:48:23.454Z,100089.06
2023-01-19T10:50:49.853Z,100093.44
2023-01-19T10:53:16.231Z,100093.63
2023-01-19T10:55:42.580Z,100080.63
2023-01-19T10:58:08.973Z,100076.50
2023-01-19T11:00:35.340Z,100081.34
2023-01-19T11:03:02.255Z,100083.66
2023-01-19T11:05:28.977Z,100080.50
2023-01-19T11:07:55.351Z,100078.78
2023-01-19T11:10:21.723Z,100075.63
2023-01-19T11:12:48.116Z,100073.97
2023-01-19T11:15:14.474Z,100063.13
2023-01-19T11:17:40.862Z,100068.41
2023-01-19T11:20:07.238Z,100067.47
2023-01-19T11:22:33.627Z,100068.13
2023-01-19T11:25:00.027Z,100067.66
2023-01-19T11:27:26.420Z,100074.09
2023-01-19T11:29:52.816Z,100064.00
2023-01-19T11:32:19.204Z,100068.13
2023-01-19T11:34:45.597Z,100060.72
2023-01-19T11:37:11.950Z,100066.28
2023-01-19T11:39:38.332Z,100051.06
2023-01-19T11:42:04.707Z,100059.47
2023-01-19T11:44:31.087Z,100057.19
2023-01-19T11:46:57.493Z,100045.75
2023-01-19T11:49:23.876Z,100043.22
2023-01-19T11:51:50.227Z,100038.38
2023-01-19T11:54:16.607Z,100042.28
2023-01-19T11:56:42.979Z,100037.63
2023-01-19T11:59:09.366Z,100031.44
2023-01-19T12:01:35.767Z,100027.53
2023-01-19T12:04:02.167Z,100024.34
2023-01-19T12:06:28.546Z,100022.53
2023-01-19T12:08:54.931Z,100022.09
2023-01-19T12:11:21.295Z,100023.41
2023-01-19T12:13:47.668Z,100019.38
2023-01-19T12:16:14.065Z,100015.91
2023-01-19T12:18:40.443Z,100015.25
2023-01-19T12:21:06.880Z,100003.22
2023-01-19T12:23:33.228Z,99998.72
2023-01-19T12:25:59.604Z,100003.38
2023-01-19T12:28:25.997Z,99997.19
2023-01-19T12:30:52.471Z,99988.75
2023-01-19T12:33:18.910Z,99982.13
2023-01-19T12:35:45.387Z,99988.13
2023-01-19T12:38:11.777Z,99982.69
2023-01-19T12:40:38.149Z,99986.47
2023-01-19T12:43:04.527Z,99981.78
2023-01-19T12:45:30.879Z,99988.56
2023-01-19T12:47:57.273Z,99984.22
2023-01-19T12:50:23.853Z,99984.97
2023-01-19T12:52:50.225Z,99983.75
2023-01-19T12:55:16.582Z,99985.09
2023-01-19T12:57:42.943Z,99975.75
2023-01-19T13:00:09.300Z,99984.22
2023-01-19T13:02:35.707Z,99984.50
2023-01-19T13:05:02.088Z,99979.97
2023-01-19T13:07:28.487Z,99979.84
2023-01-19T13:09:54.838Z,99977.38
2023-01-19T13:12:21.232Z,99967.34
2023-01-19T13:14:47.613Z,99964.31
2023-01-19T13:17:13.985Z,99958.59
2023-01-19T13:19:40.347Z,99960.22
2023-01-19T13:22:06.722Z,99959.66
2023-01-19T13:24:33.133Z,99962.94
2023-01-19T13:26:59.510Z,99963.38
2023-01-19T13:29:25.887Z,99958.72
2023-01-19T13:31:52.252Z,99953.41
2023-01-19T13:34:18.631Z,99952.53
2023-01-19T13:36:45.024Z,99961.31
2023-01-19T13:39:11.384Z,99958.25
2023-01-19T13:41:37.750Z,99950.72
2023-01-19T13:44:04.134Z,99948.28
2023-01-19T13:46:30.572Z,99948.72
2023-01-19T13:48:56.988Z,99951.75
2023-01-19T13:51:23.368Z,99957.50
2023-01-19T13:53:49.765Z,99948.00
2023-01-19T13:56:16.151Z,99948.41
2023-01-19T13:58:42.488Z,99944.19
2023-01-19T14:01:09.066Z,99944.94
2023-01-19T14:03:35.566Z,99943.00
2023-01-19T14:06:02.020Z,99944.81
2023-01-19T14:08:28.557Z,99942.56
2023-01-19T14:10:54.930Z,99938.63
2023-01-19T14:13:21.320Z,99939.97
2023-01-19T14:15:47.736Z,99937.13
2023-01-19T14:18:14.139Z,99937.41
2023-01-19T14:20:40.510Z,99940.72
2023-01-19T14:23:06.869Z,99929.84
2023-01-19T14:25:48.342Z,99933.47
2023-01-19T14:28:14.738Z,99937.06
2023-01-19T14:30:41.120Z,99935.75
2023-01-19T14:33:07.530Z,99936.63
2023-01-19T14:35:33.876Z,99942.81
2023-01-19T14:38:00.252Z,99942.63
2023-01-19T14:40:26.667Z,99936.50
2023-01-19T14:42:53.041Z,99938.59
2023-01-19T14:45:19.556Z,99938.88
2023-01-19T14:47:45.917Z,99937.41
2023-01-19T14:50:12.281Z,99936.63
2023-01-19T14:52:38.656Z,99942.38
2023-01-19T14:55:05.058Z,99939.03
2023-01-19T14:57:31.549Z,99942.50
2023-01-19T14:59:57.911Z,99940.53
2023-01-19T15:02:24.384Z,99940.09
2023-01-19T15:04:50.872Z,99931.97
2023-01-19T15:07:17.311Z,99934.97
2023-01-19T15:09:43.717Z,99934.69
2023-01-19T15:12:10.088Z,99937.81
2023-01-19T15:14:36.451Z,99930.75
2023-01-19T15:17:02.799Z,99936.16
2023-01-19T15:19:29.182Z,99941.94
2023-01-19T15:21:55.551Z,99944.78
2023-01-19T15:24:21.928Z,99947.03
2023-01-19T15:26:48.414Z,99949.13
2023-01-19T15:29:14.774Z,99953.03
2023-01-19T15:31:41.185Z,99946.59
2023-01-19T15:34:07.586Z,99955.75
2023-01-19T15:36:33.971Z,99956.19
2023-01-19T15:39:00.331Z,99962.69
2023-01-19T15:41:26.750Z,99967.38
2023-01-19T15:43:53.131Z,99971.91
2023-01-19T15:46:19.520Z,99961.19
2023-01-19T15:48:45.914Z,99964.66
2023-01-19T15:51:12.384Z,99969.00
2023-01-19T15:53:38.749Z,99967.38
2023-01-19T15:56:05.111Z,99956.06
2023-01-19T15:58:31.684Z,99961.50
2023-01-19T16:00:58.174Z,99961.94
2023-01-19T16:03:24.582Z,99972.34
2023-01-19T16:05:50.942Z,99968.44
2023-01-19T16:08:17.333Z,99966.91
2023-01-19T16:10:43.688Z,99973.09
2023-01-19T16:13:10.093Z,99967.03
2023-01-19T16:15:36.481Z,99977.78
2023-01-19T16:18:02.904Z,99980.81
2023-01-19T16:20:29.270Z,99976.59
2023-01-19T16:22:58.592Z,99981.06
2023-01-19T16:25:32.551Z,99986.38
2023-01-19T16:27:58.936Z,99986.38
2023-01-19T16:30:25.307Z,99992.22
2023-01-19T16:32:51.705Z,99987.88
2023-01-19T16:35:18.052Z,99984.41
2023-01-19T16:37:44.491Z,99993.31
2023-01-19T16:40:11.273Z,99992.41
2023-01-19T16:42:37.948Z,99996.00
2023-01-19T16:45:04.323Z,99988.63
2023-01-19T16:47:30.682Z,99994.53
2023-01-19T16:49:57.056Z,99991.03
2023-01-19T16:52:23.470Z,100001.44
2023-01-19T16:54:49.890Z,99998.59
2023-01-19T16:57:16.267Z,99996.34
2023-01-19T16:59:42.645Z,100004.03
2023-01-19T17:02:09.146Z,100002.19
2023-01-19T17:04:35.554Z,100005.38
2023-01-19T17:07:01.983Z,100011.88
2023-01-19T17:09:28.335Z,100009.66
2023-01-19T17:11:54.685Z,100008.25
2023-01-19T17:14:21.087Z,100013.50
2023-01-19T17:16:47.509Z,100023.78
2023-01-19T17:19:13.890Z,100019.38
2023-01-19T17:21:40.290Z,100024.97
2023-01-19T17:24:06.647Z,100027.09
2023-01-19T17:26:33.055Z,100025.44
2023-01-19T17:28:59.456Z,100027.50
2023-01-19T17:31:25.862Z,100029.94
2023-01-19T17:33:52.367Z,100028.28
2023-01-19T17:36:18.770Z,100027.50
2023-01-19T17:38:45.128Z,100026.31
2023-01-19T17:41:11.504Z,100025.88
2023-01-19T17:43:37.968Z,100024.97
2023-01-19T17:46:04.367Z,100031.16
2023-01-19T17:48:30.752Z,100040.66
2023-01-19T17:50:57.129Z,100045.63
2023-01-19T17:53:23.491Z,100040.97
2023-01-19T17:55:49.850Z,100047.28
2023-01-19T17:58:16.334Z,100045.63
2023-01-19T18:00:42.705Z,100058.31
2023-01-19T18:03:09.069Z,100062.38
2023-01-19T18:05:35.419Z,100057.78
2023-01-19T18:08:01.928Z,100063.09
2023-01-19T18:10:28.330Z,100061.47
2023-01-19T18:12:54.718Z,100061.59
2023-01-19T18:15:21.092Z,100057.69
2023-01-19T18:17:47.460Z,100068.22
2023-01-19T18:20:14.106Z,100070.81
2023-01-19T18:22:40.746Z,100080.47
2023-01-19T18:25:07.110Z,100070.81
2023-01-19T18:27:33.456Z,100076.88
2023-01-19T18:29:59.827Z,100073.09
2023-01-19T18:32:27.271Z,100071.25
2023-01-19T18:34:53.693Z,100076.13
2023-01-19T18:37:20.073Z,100083.97
2023-01-19T18:39:46.548Z,100070.81
2023-01-19T18:42:12.997Z,100082.75
2023-01-19T18:44:39.356Z,100099.47
2023-01-19T18:47:05.754Z,100103.69
2023-01-19T18:49:32.131Z,100103.25
2023-01-19T18:51:58.514Z,100100.84
2023-01-19T18:54:24.935Z,100098.72
2023-01-19T18:56:51.302Z,100102.63
2023-01-19T18:59:17.701Z,100109.88
2023-01-19T19:01:44.162Z,100122.06
2023-01-19T19:04:10.598Z,100121.19
2023-01-19T19:06:36.977Z,100119.13
2023-01-19T19:09:03.428Z,100125.09
2023-01-19T19:11:29.856Z,100133.66
2023-01-19T19:13:56.217Z,100133.53
2023-01-19T19:16:22.699Z,100135.84
2023-01-19T19:18:49.128Z,100130.41
2023-01-19T19:21:15.499Z,100134.66
2023-01-19T19:23:41.856Z,100137.47
2023-01-19T19:26:08.212Z,100146.50
2023-01-19T19:28:34.597Z,100148.88
2023-01-19T19:31:01.031Z,100157.66
2023-01-19T19:33:27.432Z,100147.56
2023-01-19T19:35:53.785Z,100151.16
2023-01-19T19:38:20.179Z,100148.34
2023-01-19T19:40:46.543Z,100156.25
2023-01-19T19:43:12.907Z,100157.38
2023-01-19T19:45:39.258Z,100158.44
2023-01-19T19:48:05.643Z,100161.34
2023-01-19T19:50:32.042Z,100163.09
2023-01-19T19:52:58.387Z,100161.34
2023-01-19T19:55:24.799Z,100166.88
2023-01-19T19:57:51.179Z,100164.63
2023-01-19T20:00:17.556Z,100171.66
2023-01-19T20:02:44.002Z,100176.25
2023-01-19T20:05:10.379Z,100178.50
2023-01-19T20:07:36.749Z,100179.69
2023-01-19T20:10:03.135Z,100177.31
2023-01-19T20:12:29.523Z,100182.75
2023-01-19T20:14:55.892Z,100198.56
2023-01-19T20:17:22.293Z,100192.53
2023-01-19T20:19:48.658Z,100207.72
2023-01-19T20:22:15.053Z,100216.06
2023-01-19T20:24:41.446Z,100225.09
2023-01-19T20:27:07.786Z,100228.66
2023-01-19T20:29:34.137Z,100226.59
2023-01-19T20:32:00.548Z,100227.81
2023-01-19T20:34:26.917Z,100229.31
2023-01-19T20:36:53.328Z,100237.03
2023-01-19T20:39:19.699Z,100241.38
2023-01-19T20:41:46.073Z,100248.75
2023-01-19T20:44:12.453Z,100255.38
2023-01-19T20:46:38.834Z,100261.22
2023-01-19T20:49:05.289Z,100261.56
2023-01-19T20:51:31.676Z,100258.41
2023-01-19T20:53:58.055Z,100266.56
2023-01-19T20:56:24.447Z,100271.88
2023-01-19T20:58:50.821Z,100269.16
2023-01-19T21:01:17.310Z,100267.97
2023-01-19T21:03:43.802Z,100271.44
2023-01-19T21:06:10.267Z,100270.78
2023-01-19T21:08:36.641Z,100283.94
2023-01-19T21:11:03.027Z,100288.16
2023-01-19T21:13:29.394Z,100298.69
2023-01-19T21:15:55.893Z,100297.81
2023-01-19T21:18:22.250Z,100294.91
2023-01-19T21:20:48.611Z,100298.03
2023-01-19T21:23:14.964Z,100307.72
2023-01-19T21:25:41.335Z,100306.06
2023-01-19T21:28:07.755Z,100310.09
2023-01-19T21:30:34.169Z,100324.31
2023-01-19T21:33:00.565Z,100322.72
2023-01-19T21:35:26.931Z,100326.25
2023-01-19T21:37:53.338Z,100326.50
2023-01-19T21:40:19.826Z,100322.25
2023-01-19T21:42:46.200Z,100331.16
2023-01-19T21:45:12.744Z,100333.22
2023-01-19T21:47:39.296Z,100339.84
2023-01-19T21:50:05.695Z,100343.88
2023-01-19T21:52:32.070Z,100348.63
2023-01-19T21:54:58.440Z,100350.69
2023-01-19T21:57:24.801Z,100359.19
2023-01-19T21:59:51.162Z,100364.94
2023-01-19T22:02:29.860Z,100371.47
2023-01-19T22:05:03.686Z,100369.59
2023-01-19T22:07:30.059Z,100368.41
2023-01-19T22:09:56.435Z,100368.75
2023-01-19T22:12:22.787Z,100372.97
2023-01-19T22:14:49.278Z,100376.56
2023-01-19T22:17:15.634Z,100382.31
2023-01-19T22:19:41.998Z,100379.25
2023-01-19T22:22:08.359Z,100382.84
2023-01-19T22:24:34.754Z,100392.72
2023-01-19T22:27:01.125Z,100407.16
2023-01-19T22:29:27.477Z,100402.28
2023-01-19T22:31:53.930Z,100413.78
2023-01-19T22:34:20.298Z,100409.13
2023-01-19T22:36:46.684Z,100416.09
2023-01-19T22:39:13.079Z,100420.44
2023-01-19T22:41:39.457Z,100419.88
2023-01-19T22:44:05.827Z,100425.31
2023-01-19T22:46:32.250Z,100425.00
2023-01-19T22:48:58.638Z,100435.75
2023-01-19T22:51:25.023Z,100431.09
2023-01-19T22:53:51.363Z,100439.66
2023-01-19T22:56:17.723Z,100447.69
2023-01-19T22:58:44.101Z,100452.25
2023-01-19T23:01:10.558Z,100456.03
2023-01-19T23:03:36.998Z,100463.09
2023-01-19T23:06:03.366Z,100459.16
2023-01-19T23:08:29.748Z,100464.84
2023-01-19T23:10:56.155Z,100477.00
2023-01-19T23:13:22.509Z,100483.94
2023-01-19T23:15:48.899Z,100481.66
2023-01-19T23:18:15.297Z,100489.91
2023-01-19T23:20:41.665Z,100487.09
2023-01-19T23:23:08.044Z,100489.38
2023-01-19T23:25:34.629Z,100499.47
2023-01-19T23:28:01.004Z,100502.50
2023-01-19T23:30:27.392Z,100502.94
2023-01-19T23:32:53.767Z,100513.81
2023-01-19T23:35:20.108Z,100517.63
2023-01-19T23:37:46.471Z,100521.97
2023-01-19T23:40:12.853Z,100524.22
2023-01-19T23:42:39.228Z,100523.50
2023-01-19T23:45:05.584Z,100517.50
2023-01-19T23:47:31.977Z,100518.69
2023-01-19T23:49:58.351Z,100532.81
2023-01-19T23:52:24.708Z,100532.91
2023-01-19T23:54:51.078Z,100526.09
2023-01-19T23:57:17.446Z,100530.97
2023-01-19T23:59:43.807Z,100539.53
